Time;durP1;ratioP1;P1;durP2;ratioP2;P2;SDS_P1;SDS_P2;PMS_P1;PMS_P2;Temp;Humidity;BMP_temperature;BMP_pressure;BME280_temperature;BME280_humidity;BME280_pressure;Samples;Min_cycle;Max_cycle;Signal;HPM_P1;HPM_P2
2022/07/03 00:00:39;;;;;;;6.57;2.80;;;19.70;27.60;;;;;;5072044;28;20384;-74
2022/07/03 00:03:04;;;;;;;3.60;3.00;;;19.50;29.00;;;;;;5071293;28;20411;-73
2022/07/03 00:05:30;;;;;;;7.13;2.95;;;19.40;29.00;;;;;;5071420;28;21093;-73
2022/07/03 00:07:56;;;;;;;5.87;3.03;;;19.40;29.40;;;;;;5070650;28;20384;-73
2022/07/03 00:10:22;;;;;;;5.43;2.38;;;19.30;29.90;;;;;;5070934;28;20742;-73
2022/07/03 00:12:47;;;;;;;7.95;3.33;;;19.30;29.40;;;;;;5071632;28;20405;-73
2022/07/03 00:15:13;;;;;;;5.20;3.00;;;19.30;29.70;;;;;;5070825;28;20960;-72
2022/07/03 00:17:38;;;;;;;3.57;2.77;;;19.10;30.40;;;;;;5071167;28;20384;-74
2022/07/03 00:20:04;;;;;;;4.90;2.97;;;19.20;30.40;;;;;;5072417;28;20441;-73
2022/07/03 00:22:32;;;;;;;7.35;3.10;;;19.20;30.60;;;;;;5077284;28;20388;-72
2022/07/03 00:25:04;;;;;;;5.63;2.85;;;19.20;30.10;;;;;;5077077;28;20391;-73
2022/07/03 00:27:33;;;;;;;4.03;2.60;;;19.10;30.60;;;;;;5071482;28;20492;-74
2022/07/03 00:30:00;;;;;;;6.22;2.83;;;19.00;31.00;;;;;;5070852;28;20473;-73
2022/07/03 00:32:27;;;;;;;5.00;2.80;;;18.90;31.50;;;;;;5069347;28;20384;-73
2022/07/03 00:34:55;;;;;;;4.50;2.70;;;19.20;30.60;;;;;;5071125;28;20372;-72
2022/07/03 00:37:22;;;;;;;5.40;2.70;;;19.20;30.20;;;;;;5073736;28;20849;-73
2022/07/03 00:39:48;;;;;;;8.50;2.88;;;19.40;29.30;;;;;;5073733;28;20482;-72
2022/07/03 00:42:15;;;;;;;9.45;3.40;;;19.50;29.10;;;;;;5055556;28;20403;-73
2022/07/03 00:44:46;;;;;;;7.22;2.97;;;19.50;29.10;;;;;;5073947;28;20445;-75
2022/07/03 00:47:13;;;;;;;6.65;2.80;;;19.60;28.00;;;;;;5073738;28;20434;-73
2022/07/03 00:49:40;;;;;;;5.80;3.40;;;19.60;27.90;;;;;;5073625;28;20382;-73
2022/07/03 00:52:08;;;;;;;8.13;3.30;;;19.50;28.10;;;;;;5073272;28;20856;-74
2022/07/03 00:54:35;;;;;;;4.10;3.20;;;19.30;29.10;;;;;;5073509;28;20722;-74
2022/07/03 00:57:02;;;;;;;7.45;2.60;;;19.20;29.60;;;;;;5073952;28;20884;-73
2022/07/03 00:59:29;;;;;;;3.45;2.50;;;19.20;29.20;;;;;;5073488;28;20383;-74
2022/07/03 01:02:05;;;;;;;4.28;2.83;;;19.20;29.60;;;;;;5073290;28;20470;-72
2022/07/03 01:04:45;;;;;;;8.00;3.00;;;19.00;30.60;;;;;;5073420;28;20380;-73
2022/07/03 01:07:40;;;;;;;4.83;3.20;;;19.00;30.60;;;;;;5073369;28;20442;-72
2022/07/03 01:10:43;;;;;;;4.90;3.00;;;18.80;31.10;;;;;;5073223;28;20401;-73
2022/07/03 01:13:40;;;;;;;6.18;3.05;;;18.80;31.70;;;;;;5072954;28;20784;-73
2022/07/03 01:16:14;;;;;;;6.13;3.55;;;18.80;32.10;;;;;;5055119;28;20395;-73
2022/07/03 01:18:59;;;;;;;8.32;4.00;;;18.70;33.10;;;;;;5073184;28;20479;-73
2022/07/03 01:21:42;;;;;;;7.97;3.38;;;18.70;33.60;;;;;;5073043;28;20383;-73
2022/07/03 01:24:18;;;;;;;5.15;3.10;;;18.70;34.20;;;;;;5073456;28;20395;-73
2022/07/03 01:26:46;;;;;;;5.80;3.85;;;18.60;35.20;;;;;;5055182;28;20498;-73
2022/07/03 01:29:25;;;;;;;5.78;3.25;;;18.50;35.90;;;;;;5072930;28;20414;-72
2022/07/03 01:31:53;;;;;;;7.82;3.08;;;18.70;35.90;;;;;;5072887;28;20388;-73
2022/07/03 01:34:21;;;;;;;4.63;2.97;;;18.70;35.40;;;;;;5072819;28;20775;-73
2022/07/03 01:36:50;;;;;;;8.73;3.50;;;18.70;34.50;;;;;;5073190;28;20376;-73
2022/07/03 01:39:17;;;;;;;4.90;3.35;;;18.60;36.00;;;;;;5073204;28;20387;-72
2022/07/03 01:41:47;;;;;;;5.80;3.35;;;18.40;36.20;;;;;;5072684;28;20387;-73
2022/07/03 01:44:14;;;;;;;4.30;3.10;;;18.30;36.90;;;;;;5072570;28;20882;-74
2022/07/03 01:46:42;;;;;;;4.03;3.30;;;18.10;38.60;;;;;;5072260;28;20404;-73
2022/07/03 01:49:10;;;;;;;7.03;4.00;;;18.20;39.20;;;;;;5072564;28;20479;-73
2022/07/03 01:51:38;;;;;;;7.45;3.60;;;18.40;39.10;;;;;;5072459;28;20841;-73
2022/07/03 01:54:05;;;;;;;5.85;3.90;;;18.40;39.00;;;;;;5072573;28;20795;-74
2022/07/03 01:56:33;;;;;;;5.30;3.28;;;18.30;40.40;;;;;;5073385;28;20398;-73
2022/07/03 01:58:59;;;;;;;7.65;3.60;;;18.20;40.80;;;;;;5074907;28;20396;-72
2022/07/03 02:01:31;;;;;;;8.38;3.70;;;18.10;42.70;;;;;;5075407;28;20430;-73
2022/07/03 02:04:06;;;;;;;11.53;4.20;;;18.10;42.10;;;;;;5074559;28;20463;-73
2022/07/03 02:06:56;;;;;;;6.13;3.97;;;18.00;43.10;;;;;;5074654;28;20480;-73
2022/07/03 02:09:31;;;;;;;7.90;4.60;;;17.80;44.50;;;;;;5075168;28;20899;-73
2022/07/03 02:12:00;;;;;;;5.95;4.05;;;17.60;45.90;;;;;;5072987;28;20463;-73
2022/07/03 02:14:32;;;;;;;8.95;5.13;;;17.60;46.70;;;;;;5074035;28;20386;-73
2022/07/03 02:17:15;;;;;;;8.55;4.15;;;17.60;46.70;;;;;;5071590;28;20445;-73
2022/07/03 02:19:57;;;;;;;10.60;6.10;;;17.50;47.20;;;;;;5073638;28;20479;-74
2022/07/03 02:22:35;;;;;;;6.20;4.18;;;17.50;47.70;;;;;;5077817;28;20775;-75
2022/07/03 02:25:11;;;;;;;5.63;3.88;;;17.50;49.00;;;;;;5074834;28;20429;-73
2022/07/03 02:27:46;;;;;;;7.72;3.80;;;17.40;50.00;;;;;;5074712;28;20400;-74
2022/07/03 02:30:13;;;;;;;6.22;3.90;;;17.50;50.10;;;;;;5073322;28;20482;-73
2022/07/03 02:32:50;;;;;;;5.70;3.90;;;17.50;50.90;;;;;;5073032;28;20387;-73
2022/07/03 02:35:26;;;;;;;8.73;4.55;;;17.60;50.10;;;;;;5074264;28;20425;-72
2022/07/03 02:38:11;;;;;;;8.38;4.25;;;17.60;48.90;;;;;;5074110;28;20406;-73
2022/07/03 02:40:54;;;;;;;5.20;3.83;;;17.40;49.60;;;;;;5073391;28;21044;-73
2022/07/03 02:43:39;;;;;;;6.22;4.03;;;17.30;51.00;;;;;;5074813;28;20485;-74
2022/07/03 02:46:50;;;;;;;11.50;5.23;;;17.30;51.60;;;;;;5074389;28;20402;-74
2022/07/03 02:49:48;;;;;;;5.05;4.07;;;17.20;52.20;;;;;;4973559;28;20951;-73
2022/07/03 02:52:38;;;;;;;5.40;3.60;;;17.10;52.90;;;;;;4973312;28;20396;-73
2022/07/03 02:55:07;;;;;;;6.38;4.90;;;17.10;52.70;;;;;;5062887;28;20441;-73
2022/07/03 02:57:39;;;;;;;10.82;5.55;;;17.10;52.10;;;;;;5075947;28;20467;-74
2022/07/03 03:00:10;;;;;;;8.75;5.05;;;17.10;51.90;;;;;;5074949;28;20380;-73
2022/07/03 03:02:45;;;;;;;7.18;4.63;;;17.00;52.20;;;;;;5075372;28;20381;-74
2022/07/03 03:05:40;;;;;;;8.70;5.25;;;16.90;52.30;;;;;;5075176;28;20411;-74
2022/07/03 03:08:23;;;;;;;6.93;4.93;;;16.90;52.50;;;;;;5071125;28;20765;-74
2022/07/03 03:10:50;;;;;;;8.40;4.20;;;16.80;53.50;;;;;;5073373;28;20422;-73
2022/07/03 03:13:19;;;;;;;7.63;4.43;;;16.80;53.80;;;;;;5073196;28;20928;-73
2022/07/03 03:16:10;;;;;;;9.13;4.35;;;16.70;53.40;;;;;;5073888;28;20983;-74
2022/07/03 03:18:38;;;;;;;8.90;5.43;;;16.70;53.90;;;;;;5074894;28;20779;-73
2022/07/03 03:21:06;;;;;;;7.30;4.20;;;16.70;54.80;;;;;;5074169;28;20380;-73
2022/07/03 03:23:48;;;;;;;10.63;5.20;;;16.70;55.00;;;;;;5074150;28;20411;-73
2022/07/03 03:26:18;;;;;;;7.43;4.68;;;16.60;55.60;;;;;;5073654;28;20433;-74
2022/07/03 03:28:43;;;;;;;5.72;4.30;;;16.70;56.30;;;;;;5074176;28;20786;-72
2022/07/03 03:31:12;;;;;;;5.88;4.05;;;16.70;55.60;;;;;;5072893;28;20443;-73
2022/07/03 03:33:45;;;;;;;11.68;6.40;;;16.80;55.90;;;;;;5074241;28;20450;-73
2022/07/03 03:36:14;;;;;;;5.80;4.27;;;16.80;54.60;;;;;;5074772;28;20565;-73
2022/07/03 03:38:40;;;;;;;7.57;4.18;;;16.80;55.00;;;;;;5081478;28;20392;-73
2022/07/03 03:41:07;;;;;;;6.93;4.50;;;16.80;54.20;;;;;;5085141;28;20376;-73
2022/07/03 03:43:33;;;;;;;6.93;4.00;;;16.70;54.60;;;;;;5084008;28;20380;-73
2022/07/03 03:46:00;;;;;;;13.00;4.18;;;16.60;55.50;;;;;;5077553;28;20407;-74
2022/07/03 03:48:31;;;;;;;10.40;4.50;;;16.60;55.60;;;;;;5079273;28;20469;-72
2022/07/03 03:50:57;;;;;;;7.38;4.78;;;16.50;56.20;;;;;;5079152;28;20535;-74
2022/07/03 03:53:25;;;;;;;6.05;4.25;;;16.50;56.50;;;;;;5077700;28;20884;-73
2022/07/03 03:56:00;;;;;;;9.65;5.50;;;16.50;57.00;;;;;;5079041;28;20387;-73
2022/07/03 03:58:27;;;;;;;8.00;4.93;;;16.50;57.30;;;;;;5079559;28;20383;-73
2022/07/03 04:00:53;;;;;;;11.10;4.50;;;16.60;57.60;;;;;;5079583;28;20470;-74
2022/07/03 04:03:19;;;;;;;7.53;4.75;;;16.60;57.80;;;;;;5060954;28;20396;-73
2022/07/03 04:05:44;;;;;;;7.65;5.00;;;16.60;57.60;;;;;;5079561;28;20571;-73
2022/07/03 04:08:10;;;;;;;6.63;3.65;;;16.60;56.90;;;;;;5079745;28;20387;-72
2022/07/03 04:10:36;;;;;;;6.30;3.60;;;16.70;56.60;;;;;;5080913;28;20429;-72
2022/07/03 04:13:01;;;;;;;8.90;4.60;;;16.70;56.20;;;;;;5084550;28;20474;-73
2022/07/03 04:15:27;;;;;;;5.20;3.80;;;16.70;56.20;;;;;;5081225;28;20516;-72
2022/07/03 04:17:52;;;;;;;5.57;4.00;;;16.80;56.20;;;;;;5063232;28;20490;-73
2022/07/03 04:20:18;;;;;;;7.30;4.37;;;16.80;55.90;;;;;;5080104;28;20903;-73
2022/07/03 04:22:43;;;;;;;7.93;3.47;;;16.90;55.80;;;;;;5079401;28;20380;-73
2022/07/03 04:25:09;;;;;;;8.17;3.90;;;17.00;55.30;;;;;;5079468;28;20375;-72
2022/07/03 04:27:35;;;;;;;7.45;3.55;;;17.10;54.70;;;;;;5080845;28;20498;-72
2022/07/03 04:30:00;;;;;;;6.43;4.00;;;17.40;52.50;;;;;;5081420;28;20380;-72
2022/07/03 04:32:26;;;;;;;8.23;4.40;;;17.60;51.00;;;;;;5080999;28;20389;-72
2022/07/03 04:34:51;;;;;;;9.87;4.40;;;17.80;49.90;;;;;;5080838;28;20548;-72
2022/07/03 04:37:17;;;;;;;9.30;3.60;;;17.80;50.40;;;;;;5080772;28;20437;-72
2022/07/03 04:39:42;;;;;;;10.20;5.17;;;17.90;50.10;;;;;;5085758;28;20733;-73
2022/07/03 04:42:08;;;;;;;7.32;3.70;;;18.00;48.90;;;;;;5088167;28;20414;-74
2022/07/03 04:44:34;;;;;;;7.57;3.90;;;18.00;49.00;;;;;;5074736;28;20400;-74
2022/07/03 04:46:59;;;;;;;8.43;3.63;;;18.40;47.10;;;;;;5088579;28;20490;-73
2022/07/03 04:49:25;;;;;;;7.00;3.77;;;18.60;45.30;;;;;;5091587;28;20388;-73
2022/07/03 04:51:52;;;;;;;9.70;4.90;;;18.50;45.90;;;;;;5085460;28;20380;-73
2022/07/03 04:54:18;;;;;;;6.25;4.40;;;18.40;47.40;;;;;;5084084;28;20451;-73
2022/07/03 04:56:43;;;;;;;8.70;4.60;;;18.30;48.20;;;;;;5077988;28;20426;-73
2022/07/03 04:59:09;;;;;;;4.78;3.90;;;18.40;48.00;;;;;;5083471;28;20868;-73
2022/07/03 05:01:34;;;;;;;8.87;4.90;;;18.40;48.40;;;;;;5079347;28;20380;-73
2022/07/03 05:04:00;;;;;;;9.67;3.40;;;18.40;48.30;;;;;;5079113;28;20387;-72
2022/07/03 05:06:25;;;;;;;8.38;4.53;;;18.40;48.00;;;;;;5077077;28;20404;-72
2022/07/03 05:08:51;;;;;;;9.77;4.60;;;18.50;47.60;;;;;;5076953;28;20380;-73
2022/07/03 05:11:16;;;;;;;8.90;5.40;;;18.50;47.90;;;;;;5077085;28;20449;-72
2022/07/03 05:13:42;;;;;;;7.22;3.70;;;18.50;47.90;;;;;;5075986;28;20415;-72
2022/07/03 05:16:07;;;;;;;7.53;4.17;;;18.50;47.90;;;;;;5075677;28;20397;-73
2022/07/03 05:18:34;;;;;;;9.65;5.00;;;18.50;48.10;;;;;;5075544;28;20387;-72
2022/07/03 05:21:00;;;;;;;5.00;3.80;;;18.60;48.00;;;;;;5056856;28;20400;-72
2022/07/03 05:23:26;;;;;;;9.13;4.30;;;18.70;48.00;;;;;;5073646;28;20391;-72
2022/07/03 05:25:51;;;;;;;7.70;4.30;;;18.80;46.10;;;;;;5074388;28;20399;-73
2022/07/03 05:28:17;;;;;;;6.13;4.23;;;18.80;45.30;;;;;;5074692;28;20475;-73
2022/07/03 05:30:42;;;;;;;5.30;4.20;;;18.80;45.20;;;;;;5075308;28;20391;-73
2022/07/03 05:33:08;;;;;;;6.30;4.23;;;18.90;44.80;;;;;;5077230;28;20449;-73
2022/07/03 05:35:33;;;;;;;5.40;3.70;;;18.90;44.60;;;;;;5058854;28;20468;-73
2022/07/03 05:37:59;;;;;;;6.82;4.20;;;19.00;44.20;;;;;;5055967;28;20403;-71
2022/07/03 05:40:25;;;;;;;8.93;4.30;;;19.10;40.10;;;;;;5073650;28;20376;-72
2022/07/03 05:42:50;;;;;;;7.40;3.50;;;19.30;36.90;;;;;;5073894;28;20387;-71
2022/07/03 05:45:16;;;;;;;9.38;4.60;;;19.40;35.20;;;;;;5073729;28;20376;-72
2022/07/03 05:47:41;;;;;;;7.80;4.53;;;19.50;33.00;;;;;;5073471;28;20896;-72
2022/07/03 05:50:07;;;;;;;5.77;4.60;;;19.60;32.50;;;;;;5073654;28;20384;-72
2022/07/03 05:52:33;;;;;;;6.40;4.07;;;19.60;32.40;;;;;;5073456;28;20415;-71
2022/07/03 05:54:59;;;;;;;7.07;4.70;;;19.60;32.50;;;;;;5055904;28;20479;-71
2022/07/03 05:57:24;;;;;;;6.28;4.10;;;19.70;31.60;;;;;;5074384;28;20391;-72
2022/07/03 05:59:50;;;;;;;7.10;5.00;;;20.10;30.40;;;;;;5074376;28;20787;-72
2022/07/03 06:02:15;;;;;;;8.63;4.70;;;20.00;30.50;;;;;;5055287;28;20392;-73
2022/07/03 06:04:41;;;;;;;9.20;5.10;;;20.00;31.00;;;;;;5073400;28;20375;-73
2022/07/03 06:07:07;;;;;;;5.78;4.35;;;20.00;31.10;;;;;;5073269;28;20403;-73
2022/07/03 06:09:32;;;;;;;4.73;3.90;;;20.00;31.00;;;;;;5073213;28;20736;-71
2022/07/03 06:11:58;;;;;;;5.07;4.57;;;20.10;31.10;;;;;;5072901;28;20889;-72
2022/07/03 06:14:23;;;;;;;8.30;4.90;;;20.10;30.50;;;;;;5073789;28;20388;-72
2022/07/03 06:16:49;;;;;;;5.43;4.30;;;20.10;30.30;;;;;;5073865;28;20703;-72
2022/07/03 06:19:15;;;;;;;6.55;5.15;;;20.00;30.50;;;;;;5073378;28;20383;-72
2022/07/03 06:21:40;;;;;;;7.00;4.63;;;20.00;30.70;;;;;;5073373;28;20384;-73
2022/07/03 06:24:06;;;;;;;6.50;5.00;;;20.10;31.10;;;;;;5073162;28;20868;-74
2022/07/03 06:26:32;;;;;;;5.40;3.97;;;20.40;30.00;;;;;;5055665;28;20431;-73
2022/07/03 06:28:57;;;;;;;5.00;4.50;;;20.50;30.20;;;;;;5076111;28;20384;-72
2022/07/03 06:31:23;;;;;;;7.70;4.83;;;20.90;26.60;;;;;;5076177;28;20494;-75
2022/07/03 06:33:48;;;;;;;8.50;4.90;;;20.80;27.50;;;;;;5076412;28;20826;-74
2022/07/03 06:36:14;;;;;;;6.50;4.60;;;20.70;28.10;;;;;;5077016;28;20466;-73
2022/07/03 06:38:39;;;;;;;6.87;4.33;;;20.70;28.70;;;;;;5076837;28;20411;-73
2022/07/03 06:41:05;;;;;;;11.00;4.87;;;20.90;27.60;;;;;;5076396;28;20547;-73
2022/07/03 06:43:31;;;;;;;10.18;4.80;;;20.90;27.90;;;;;;5076317;28;20896;-73
2022/07/03 06:45:56;;;;;;;8.40;5.30;;;20.90;26.30;;;;;;5076095;28;20404;-74
2022/07/03 06:48:22;;;;;;;7.53;5.10;;;20.90;26.40;;;;;;5076284;28;20387;-73
2022/07/03 06:50:48;;;;;;;13.80;8.60;;;20.90;26.00;;;;;;5072009;28;20378;-72
2022/07/03 06:53:13;;;;;;;13.15;7.10;;;21.10;25.20;;;;;;5072436;28;20387;-72
2022/07/03 06:55:39;;;;;;;8.83;5.40;;;21.30;24.70;;;;;;5073315;28;20384;-73
2022/07/03 06:58:04;;;;;;;7.83;5.10;;;21.40;24.60;;;;;;5073334;28;20756;-72
2022/07/03 07:00:30;;;;;;;12.85;6.70;;;21.40;25.20;;;;;;5073484;28;20375;-71
2022/07/03 07:02:56;;;;;;;7.33;4.60;;;21.50;24.70;;;;;;5074909;28;20399;-74
2022/07/03 07:05:22;;;;;;;11.17;4.80;;;21.30;25.10;;;;;;5058425;28;20383;-74
2022/07/03 07:07:48;;;;;;;11.30;6.13;;;21.20;23.80;;;;;;5073099;28;20483;-73
2022/07/03 07:10:14;;;;;;;7.47;5.30;;;21.40;24.50;;;;;;5072529;28;20383;-73
2022/07/03 07:12:39;;;;;;;9.50;5.40;;;21.40;24.60;;;;;;5073066;28;20536;-73
2022/07/03 07:15:05;;;;;;;10.80;4.97;;;21.40;25.40;;;;;;5072448;28;20384;-73
2022/07/03 07:17:31;;;;;;;7.18;5.03;;;21.50;24.80;;;;;;5072236;28;20379;-73
2022/07/03 07:19:57;;;;;;;7.78;4.80;;;21.60;24.10;;;;;;5073704;28;20390;-73
2022/07/03 07:22:23;;;;;;;9.77;4.47;;;21.70;23.10;;;;;;5055026;28;20390;-74
2022/07/03 07:24:48;;;;;;;10.50;5.17;;;21.70;23.10;;;;;;5073668;28;20388;-73
2022/07/03 07:27:14;;;;;;;6.43;4.57;;;21.80;22.70;;;;;;5072953;28;20934;-73
2022/07/03 07:29:40;;;;;;;10.48;4.70;;;22.00;21.00;;;;;;5074714;28;20387;-73
2022/07/03 07:32:06;;;;;;;12.65;4.90;;;22.10;21.70;;;;;;5079416;28;20379;-73
2022/07/03 07:34:31;;;;;;;7.57;4.47;;;22.30;21.50;;;;;;5082286;28;20384;-73
2022/07/03 07:36:57;;;;;;;6.80;4.50;;;22.60;19.90;;;;;;5081598;28;20429;-73
2022/07/03 07:39:22;;;;;;;5.47;4.40;;;22.70;20.00;;;;;;5082125;28;20391;-73
2022/07/03 07:41:48;;;;;;;8.53;4.53;;;22.60;20.00;;;;;;5081424;28;20387;-72
2022/07/03 07:44:14;;;;;;;6.87;4.57;;;22.50;20.70;;;;;;5076032;28;20444;-74
2022/07/03 07:46:39;;;;;;;7.40;5.03;;;22.30;22.00;;;;;;5072536;28;20598;-73
2022/07/03 07:49:05;;;;;;;12.30;5.10;;;22.10;22.60;;;;;;5072240;28;20392;-73
2022/07/03 07:51:30;;;;;;;6.35;4.05;;;22.20;22.50;;;;;;5072726;28;20912;-74
2022/07/03 07:53:57;;;;;;;7.97;4.30;;;22.30;21.80;;;;;;5073481;28;20376;-73
2022/07/03 07:56:24;;;;;;;5.80;4.00;;;22.30;20.20;;;;;;5073483;28;20384;-74
2022/07/03 07:58:51;;;;;;;8.38;4.40;;;22.30;20.00;;;;;;5055138;28;20765;-72
2022/07/03 08:06:45;;;;;;;7.90;4.00;;;22.30;20.00;;;;;;5074061;28;20406;-74
2022/07/03 08:09:11;;;;;;;8.88;4.32;;;22.40;20.00;;;;;;5072939;28;20380;-73
2022/07/03 08:11:37;;;;;;;5.93;3.67;;;22.40;19.40;;;;;;5071503;28;20456;-72
2022/07/03 08:14:04;;;;;;;3.88;3.40;;;22.30;19.10;;;;;;5071579;28;20390;-72
2022/07/03 08:16:30;;;;;;;4.75;3.40;;;22.40;18.40;;;;;;5053835;28;20391;-73
2022/07/03 08:18:56;;;;;;;11.60;3.80;;;22.40;18.40;;;;;;5072983;28;20396;-73
2022/07/03 08:21:22;;;;;;;7.77;3.07;;;22.30;19.00;;;;;;5054237;28;20776;-73
2022/07/03 08:23:47;;;;;;;7.07;3.60;;;22.30;18.80;;;;;;5076086;28;20740;-73
2022/07/03 08:26:13;;;;;;;5.78;3.50;;;22.40;18.20;;;;;;5074868;28;20403;-74
2022/07/03 08:28:39;;;;;;;4.97;2.80;;;22.50;18.00;;;;;;5073748;28;20380;-75
2022/07/03 08:31:04;;;;;;;6.73;3.67;;;22.50;18.30;;;;;;5073663;28;20864;-74
2022/07/03 08:33:30;;;;;;;4.43;3.00;;;22.50;17.80;;;;;;5073547;28;20445;-75
2022/07/03 08:35:56;;;;;;;4.37;3.20;;;22.60;18.70;;;;;;5075477;28;20380;-74
2022/07/03 08:38:29;;;;;;;6.40;3.40;;;22.60;18.20;;;;;;5075212;28;20449;-73
2022/07/03 08:40:56;;;;;;;7.05;4.18;;;22.70;19.20;;;;;;5071323;28;20383;-73
2022/07/03 08:43:22;;;;;;;4.43;4.00;;;22.70;19.10;;;;;;5071172;28;20460;-73
2022/07/03 08:45:47;;;;;;;6.73;4.10;;;22.70;18.90;;;;;;5071526;28;20868;-72
2022/07/03 08:48:14;;;;;;;12.40;4.40;;;22.60;19.20;;;;;;5071405;28;20454;-73
2022/07/03 08:50:41;;;;;;;3.90;3.60;;;22.50;18.70;;;;;;5070907;28;20380;-72
2022/07/03 08:53:10;;;;;;;7.68;3.67;;;22.60;18.80;;;;;;5071498;28;20388;-73
2022/07/03 08:55:36;;;;;;;4.88;2.97;;;22.80;19.50;;;;;;5071387;28;20426;-73
2022/07/03 08:58:04;;;;;;;5.50;3.73;;;22.90;19.00;;;;;;5074806;28;20384;-74
2022/07/03 09:00:31;;;;;;;7.10;3.20;;;22.90;18.30;;;;;;5074879;28;20380;-73
2022/07/03 09:02:59;;;;;;;5.65;3.08;;;22.90;18.20;;;;;;5056794;28;20386;-74
2022/07/03 09:05:25;;;;;;;9.73;3.58;;;22.90;17.80;;;;;;5058283;28;20419;-73
2022/07/03 09:07:52;;;;;;;8.43;3.50;;;22.90;17.90;;;;;;5076129;28;20438;-74
2022/07/03 09:10:19;;;;;;;6.38;3.20;;;23.00;19.30;;;;;;5078164;28;20379;-73
2022/07/03 09:12:46;;;;;;;10.65;3.35;;;23.00;18.90;;;;;;5076771;28;20383;-72
2022/07/03 09:15:12;;;;;;;5.90;3.38;;;23.00;17.70;;;;;;5075775;28;20384;-72
2022/07/03 09:17:38;;;;;;;6.05;2.80;;;23.00;18.10;;;;;;5075834;28;20819;-74
2022/07/03 09:20:07;;;;;;;5.30;2.63;;;23.20;17.50;;;;;;5077034;28;20913;-73
2022/07/03 09:22:36;;;;;;;4.65;2.30;;;23.30;17.00;;;;;;5076539;28;20400;-73
2022/07/03 09:25:07;;;;;;;5.30;3.00;;;23.40;17.70;;;;;;5077324;28;20422;-73
2022/07/03 09:27:34;;;;;;;4.85;2.65;;;23.60;16.70;;;;;;5058890;28;20405;-73
2022/07/03 09:30:05;;;;;;;8.07;2.80;;;23.60;16.50;;;;;;5078009;28;20781;-73
2022/07/03 09:32:36;;;;;;;9.05;2.80;;;23.60;16.40;;;;;;5075115;28;20571;-74
2022/07/03 09:35:22;;;;;;;5.20;2.70;;;23.70;16.40;;;;;;5074362;28;20386;-74
2022/07/03 09:37:56;;;;;;;4.53;2.60;;;23.80;16.70;;;;;;5074402;28;20921;-74
2022/07/03 09:40:26;;;;;;;4.68;2.90;;;23.70;16.60;;;;;;5073061;28;20396;-75
2022/07/03 09:43:00;;;;;;;3.70;2.80;;;23.70;16.30;;;;;;5072802;28;20736;-74
2022/07/03 09:45:26;;;;;;;5.75;2.95;;;23.70;16.60;;;;;;5073167;28;20390;-76
2022/07/03 09:47:52;;;;;;;4.53;2.50;;;23.80;16.70;;;;;;5073185;28;20436;-74
2022/07/03 09:50:17;;;;;;;5.93;2.95;;;23.70;16.30;;;;;;5073114;28;20419;-73
2022/07/03 09:52:45;;;;;;;6.17;3.27;;;23.60;16.70;;;;;;5072952;28;20388;-76
2022/07/03 09:55:10;;;;;;;4.47;2.90;;;23.30;16.80;;;;;;5072698;28;20850;-73
2022/07/03 09:57:39;;;;;;;11.07;3.00;;;23.30;17.40;;;;;;5072674;28;20387;-75
2022/07/03 10:00:15;;;;;;;5.30;3.45;;;23.40;17.70;;;;;;5072902;28;20787;-74
2022/07/03 10:03:03;;;;;;;3.50;3.20;;;23.20;18.20;;;;;;5072504;28;20380;-74
2022/07/03 10:05:36;;;;;;;5.47;3.05;;;23.40;17.60;;;;;;5072908;28;20379;-75
2022/07/03 10:08:10;;;;;;;7.78;3.50;;;23.60;17.60;;;;;;5072057;28;20396;-75
2022/07/03 10:10:39;;;;;;;8.23;3.63;;;23.80;17.00;;;;;;5072682;28;20376;-74
2022/07/03 10:13:05;;;;;;;7.68;3.35;;;23.80;16.70;;;;;;5072514;28;20380;-75
2022/07/03 10:15:32;;;;;;;7.57;3.65;;;23.90;16.60;;;;;;5072911;28;20380;-75
2022/07/03 10:17:59;;;;;;;5.60;2.90;;;24.00;16.70;;;;;;5072121;28;20379;-73
2022/07/03 10:20:28;;;;;;;9.70;3.65;;;24.30;16.60;;;;;;5072299;28;20383;-74
2022/07/03 10:22:54;;;;;;;11.48;3.88;;;24.30;16.50;;;;;;5071801;28;20386;-73
2022/07/03 10:25:20;;;;;;;8.10;4.80;;;24.20;16.20;;;;;;5072272;28;20383;-74
2022/07/03 10:27:46;;;;;;;6.15;3.58;;;24.20;17.40;;;;;;5072071;28;20407;-73
2022/07/03 10:30:18;;;;;;;5.18;3.25;;;24.30;16.80;;;;;;5072164;28;20391;-74
2022/07/03 10:32:53;;;;;;;6.70;4.30;;;24.40;16.70;;;;;;5071822;28;20388;-76
2022/07/03 10:35:23;;;;;;;8.15;3.80;;;24.80;15.80;;;;;;5071884;28;20423;-74
2022/07/03 10:37:57;;;;;;;9.85;4.15;;;24.80;16.00;;;;;;5053827;28;20400;-75
2022/07/03 10:46:29;;;;;;;8.40;4.00;;;24.80;16.10;;;;;;5071672;28;20457;-75
2022/07/03 10:48:55;;;;;;;6.33;3.53;;;24.70;15.70;;;;;;5071338;28;20764;-75
2022/07/03 10:51:21;;;;;;;6.00;3.90;;;24.60;15.80;;;;;;5071150;28;20375;-74
2022/07/03 10:53:48;;;;;;;7.82;4.55;;;24.80;15.80;;;;;;5071718;28;20437;-75
2022/07/03 10:56:14;;;;;;;8.00;3.40;;;24.90;16.10;;;;;;5071952;28;20392;-74
2022/07/03 10:58:58;;;;;;;5.68;3.15;;;24.90;16.60;;;;;;5071230;28;20474;-74
2022/07/03 11:01:32;;;;;;;6.80;3.13;;;25.00;15.80;;;;;;5071071;28;20383;-75
2022/07/03 11:03:59;;;;;;;7.50;3.90;;;25.00;15.30;;;;;;5071200;28;20400;-73
2022/07/03 11:06:42;;;;;;;5.63;3.20;;;24.90;14.80;;;;;;5071014;28;20469;-73
2022/07/03 11:09:12;;;;;;;5.50;3.80;;;25.00;14.80;;;;;;5071138;28;20386;-75
2022/07/03 11:11:55;;;;;;;6.80;3.08;;;25.00;14.30;;;;;;5071041;28;20433;-75
2022/07/03 11:14:25;;;;;;;4.80;3.10;;;25.00;15.00;;;;;;5070935;28;20416;-75
2022/07/03 11:17:20;;;;;;;4.90;3.00;;;25.00;15.00;;;;;;5071088;28;20387;-74
2022/07/03 11:20:23;;;;;;;7.20;3.10;;;25.20;14.50;;;;;;5059111;28;20423;-75
2022/07/03 11:22:54;;;;;;;7.75;6.05;;;25.30;13.50;;;;;;5070651;28;20396;-75
2022/07/03 11:25:22;;;;;;;5.10;3.45;;;25.30;13.40;;;;;;5070555;28;20475;-75
2022/07/03 11:27:47;;;;;;;8.65;3.40;;;25.30;12.30;;;;;;5070348;28;20411;-74
2022/07/03 11:30:13;;;;;;;5.80;2.67;;;25.20;13.70;;;;;;5070337;28;20376;-74
2022/07/03 11:32:47;;;;;;;7.37;2.50;;;25.20;13.50;;;;;;5070396;28;20724;-74
2022/07/03 11:35:46;;;;;;;5.30;2.80;;;25.40;15.00;;;;;;5072319;28;20874;-73
2022/07/03 11:38:45;;;;;;;7.30;3.53;;;25.40;13.30;;;;;;5070424;28;20383;-75
2022/07/03 11:41:13;;;;;;;5.97;3.05;;;25.50;13.90;;;;;;5051820;28;20551;-74
2022/07/03 11:43:47;;;;;;;4.80;2.80;;;25.60;13.00;;;;;;5071353;28;20384;-74
2022/07/03 11:46:17;;;;;;;4.05;2.70;;;25.80;11.80;;;;;;5070263;28;20490;-73
2022/07/03 11:48:43;;;;;;;6.07;2.27;;;25.80;12.00;;;;;;5070360;28;20785;-75
2022/07/03 11:51:08;;;;;;;3.55;2.25;;;25.50;12.10;;;;;;5069971;28;20507;-76
2022/07/03 11:53:36;;;;;;;3.73;2.30;;;25.10;13.20;;;;;;5070351;28;20406;-76
2022/07/03 11:56:03;;;;;;;4.60;2.20;;;25.10;13.40;;;;;;5070303;28;20899;-73
2022/07/03 11:58:42;;;;;;;5.03;2.53;;;25.50;12.40;;;;;;5070255;28;20799;-73
2022/07/03 12:01:10;;;;;;;9.85;2.45;;;25.50;12.40;;;;;;5070215;28;20930;-73
2022/07/03 12:03:35;;;;;;;3.58;2.13;;;25.50;11.70;;;;;;5070321;28;20419;-74
2022/07/03 12:06:01;;;;;;;41.50;19.37;;;25.50;12.40;;;;;;5070527;28;20529;-75
2022/07/03 12:08:32;;;;;;;22.80;13.35;;;25.60;12.30;;;;;;5070435;28;20471;-74
2022/07/03 12:10:59;;;;;;;14.13;8.27;;;25.40;12.50;;;;;;5070384;28;20438;-75
2022/07/03 12:13:26;;;;;;;6.45;3.60;;;25.30;13.10;;;;;;5070340;28;20379;-74
2022/07/03 12:15:52;;;;;;;6.43;3.85;;;25.40;13.20;;;;;;5070201;28;20445;-74
2022/07/03 12:18:18;;;;;;;7.28;5.28;;;25.30;12.90;;;;;;5070846;28;20383;-75
2022/07/03 12:20:44;;;;;;;3.25;2.17;;;25.30;12.30;;;;;;5070359;28;20868;-75
2022/07/03 12:23:09;;;;;;;3.80;3.07;;;25.40;11.90;;;;;;5070565;28;20396;-75
2022/07/03 12:25:41;;;;;;;9.63;4.43;;;25.50;12.00;;;;;;5071426;28;20859;-76
2022/07/03 12:28:10;;;;;;;9.90;3.80;;;25.30;12.80;;;;;;5071408;28;20518;-75
2022/07/03 12:30:37;;;;;;;6.85;3.30;;;25.30;12.70;;;;;;5070424;28;20395;-76
2022/07/03 12:33:04;;;;;;;3.70;2.50;;;25.50;11.80;;;;;;5073954;28;20379;-74
2022/07/03 12:35:30;;;;;;;4.10;1.80;;;25.90;11.30;;;;;;5073982;28;20891;-74
2022/07/03 12:37:57;;;;;;;3.03;1.70;;;26.30;10.80;;;;;;5074856;28;20400;-77
2022/07/03 12:40:23;;;;;;;7.85;2.35;;;25.80;10.40;;;;;;5074201;28;20399;-74
2022/07/03 12:42:50;;;;;;;12.37;7.10;;;25.50;11.00;;;;;;5073471;28;20379;-73
2022/07/03 12:45:21;;;;;;;1.95;1.65;;;25.50;11.20;;;;;;5073484;28;20395;-76
2022/07/03 12:48:01;;;;;;;2.60;1.80;;;25.70;11.30;;;;;;5073619;28;20761;-74
2022/07/03 12:50:46;;;;;;;3.92;1.70;;;25.80;9.90;;;;;;5055539;28;20392;-74
2022/07/03 12:53:32;;;;;;;5.05;1.80;;;25.80;10.70;;;;;;5073004;28;20403;-74
2022/07/03 12:56:06;;;;;;;3.78;1.80;;;25.90;10.00;;;;;;5073444;28;20749;-73
2022/07/03 13:01:41;;;;;;;3.42;1.70;;;26.30;9.50;;;;;;5072861;28;20386;-74
2022/07/03 13:04:09;;;;;;;4.37;1.80;;;26.60;8.70;;;;;;5073168;28;20886;-75
2022/07/03 13:06:35;;;;;;;2.67;1.67;;;26.80;9.60;;;;;;5072805;28;20415;-74
2022/07/03 13:09:03;;;;;;;2.10;1.70;;;26.60;9.70;;;;;;5073395;28;20922;-74
2022/07/03 13:11:32;;;;;;;2.40;1.65;;;26.60;8.90;;;;;;5073694;28;20384;-74